This is the latest recevied weather packets stored in our database for station/object N7CW. If no packets are shown the sender has not sent any weather packets the latest 10 day(s).
| Time | Temp. | Humidity | Pressure | Rain* | Wind** | Luminosity | Snow |
|---|---|---|---|---|---|---|---|
| 1777843957 | 22.22° C | 29% | 1015.5 hPa | 0 mm | - | 140 W/m² | - |
| 1777843654 | 22.22° C | 28% | 1015.5 hPa | 0 mm | - | 771 W/m² | - |
| 1777843352 | 22.78° C | 28% | 1015.7 hPa | 0 mm | - | 749 W/m² | - |
| 1777843049 | 21.67° C | 29% | 1015.8 hPa | 0 mm | - | 758 W/m² | - |
| 1777842745 | 21.67° C | 28% | 1015.9 hPa | 0 mm | - | 830 W/m² | - |
| 1777842441 | 21.11° C | 29% | 1016 hPa | 0 mm | - | 848 W/m² | - |
| 1777842139 | 21.67° C | 28% | 1016.1 hPa | 0 mm | - | 785 W/m² | - |
| 1777841834 | 21.11° C | 29% | 1015.9 hPa | 0 mm | - | 755 W/m² | - |
| 1777841530 | 21.11° C | 28% | 1016.1 hPa | 0 mm | - | 774 W/m² | - |
| 1777840621 | 22.22° C | 25% | 1016.1 hPa | 0 mm | - | 791 W/m² | - |
| 1777840319 | 21.67° C | 25% | 1016.4 hPa | 0 mm | - | 796 W/m² | - |
| 1777840015 | 21.67° C | 26% | 1016.5 hPa | 0 mm | - | 798 W/m² | - |
| 1777839714 | 21.67° C | 27% | 1016.6 hPa | 0 mm | - | 800 W/m² | - |
| 1777839412 | 21.67° C | 25% | 1016.2 hPa | 0 mm | - | 805 W/m² | - |
| 1777838501 | 21.11° C | 28% | 1016.7 hPa | 0 mm | - | 844 W/m² | - |
| 1777836985 | 21.67° C | 27% | 1016.8 hPa | 0 mm | - | 852 W/m² | - |
| 1777836680 | 22.22° C | 30% | 1017 hPa | 0 mm | - | 877 W/m² | - |
| 1777836072 | 21.11° C | 31% | 1017.1 hPa | 0 mm | - | 155 W/m² | - |
| 1777835769 | 21.67° C | 28% | 1017.2 hPa | 0 mm | - | 897 W/m² | - |
| 1777835466 | 22.78° C | 28% | 1017.3 hPa | 0 mm | - | 208 W/m² | - |
| 1777834860 | 22.78° C | 30% | 1017.2 hPa | 0 mm | - | 911 W/m² | - |
| 1777834256 | 21.67° C | 31% | 1017.4 hPa | 0 mm | - | 915 W/m² | - |
| 1777833649 | 21.11° C | 34% | 1017.4 hPa | 0 mm | - | 917 W/m² | - |
| 1777833043 | 21.67° C | 33% | 1017.4 hPa | 0 mm | - | 703 W/m² | - |
| 1777832741 | 21.11° C | 34% | 1017.2 hPa | 0 mm | - | 911 W/m² | - |
* Rain latest hour (hover to see other rain measurements)
** Current wind speed in m/s (hover to see current wind gust speed)